sensor_id;sensor_type;location;lat;lon;timestamp;temperature;humidity
52267;DHT22;38223;50.940;4.034;2022-09-17T00:01:35;11.70;99.90
52267;DHT22;38223;50.940;4.034;2022-09-17T00:04:05;11.70;99.90
52267;DHT22;38223;50.940;4.034;2022-09-17T00:06:41;11.70;99.90
52267;DHT22;38223;50.940;4.034;2022-09-17T00:09:10;11.70;99.90
52267;DHT22;38223;50.940;4.034;2022-09-17T00:11:49;11.80;99.90
52267;DHT22;38223;50.940;4.034;2022-09-17T00:14:19;11.90;99.90
52267;DHT22;38223;50.940;4.034;2022-09-17T00:16:54;12.10;99.90
52267;DHT22;38223;50.940;4.034;2022-09-17T00:19:27;12.00;99.90
52267;DHT22;38223;50.940;4.034;2022-09-17T00:22:01;12.10;99.90
52267;DHT22;38223;50.940;4.034;2022-09-17T00:24:38;12.10;99.90
52267;DHT22;38223;50.940;4.034;2022-09-17T00:27:15;12.30;99.90
52267;DHT22;38223;50.940;4.034;2022-09-17T00:29:47;12.40;99.90
52267;DHT22;38223;50.940;4.034;2022-09-17T00:32:18;12.20;99.90
52267;DHT22;38223;50.940;4.034;2022-09-17T00:34:51;12.00;99.90
52267;DHT22;38223;50.940;4.034;2022-09-17T00:37:21;11.90;99.90
52267;DHT22;38223;50.940;4.034;2022-09-17T00:39:55;11.80;99.90
52267;DHT22;38223;50.940;4.034;2022-09-17T00:42:28;11.80;99.90
52267;DHT22;38223;50.940;4.034;2022-09-17T00:44:57;12.00;99.90
52267;DHT22;38223;50.940;4.034;2022-09-17T00:47:34;12.10;99.90
52267;DHT22;38223;50.940;4.034;2022-09-17T00:50:18;12.40;99.90
52267;DHT22;38223;50.940;4.034;2022-09-17T00:52:53;12.50;99.90
52267;DHT22;38223;50.940;4.034;2022-09-17T00:58:10;12.30;99.90
52267;DHT22;38223;50.940;4.034;2022-09-17T01:00:43;12.20;99.90
52267;DHT22;38223;50.940;4.034;2022-09-17T01:03:15;12.10;99.90
52267;DHT22;38223;50.940;4.034;2022-09-17T01:06:12;12.10;99.90
52267;DHT22;38223;50.940;4.034;2022-09-17T01:09:09;12.10;99.90
52267;DHT22;38223;50.940;4.034;2022-09-17T01:17:43;11.60;99.90
52267;DHT22;38223;50.940;4.034;2022-09-17T01:23:18;11.50;99.90
52267;DHT22;38223;50.940;4.034;2022-09-17T01:28:40;11.70;99.90
52267;DHT22;38223;50.940;4.034;2022-09-17T01:31:29;11.90;99.90
52267;DHT22;38223;50.940;4.034;2022-09-17T01:39:44;12.10;99.90
52267;DHT22;38223;50.940;4.034;2022-09-17T01:42:45;12.10;99.90
52267;DHT22;38223;50.940;4.034;2022-09-17T01:45:27;12.10;99.90
52267;DHT22;38223;50.940;4.034;2022-09-17T01:48:03;12.10;99.90
52267;DHT22;38223;50.940;4.034;2022-09-17T01:50:40;12.10;99.90
52267;DHT22;38223;50.940;4.034;2022-09-17T01:53:12;12.10;99.90
52267;DHT22;38223;50.940;4.034;2022-09-17T01:55:47;12.30;99.90
52267;DHT22;38223;50.940;4.034;2022-09-17T02:00:59;12.30;99.90
52267;DHT22;38223;50.940;4.034;2022-09-17T02:03:38;12.30;99.90
52267;DHT22;38223;50.940;4.034;2022-09-17T02:06:12;12.30;99.90
52267;DHT22;38223;50.940;4.034;2022-09-17T02:09:01;12.30;99.90
52267;DHT22;38223;50.940;4.034;2022-09-17T02:11:34;12.50;99.90
52267;DHT22;38223;50.940;4.034;2022-09-17T02:14:13;12.70;99.90
52267;DHT22;38223;50.940;4.034;2022-09-17T02:16:51;12.70;99.90
52267;DHT22;38223;50.940;4.034;2022-09-17T02:19:33;12.80;99.90
52267;DHT22;38223;50.940;4.034;2022-09-17T02:25:06;12.80;99.90
52267;DHT22;38223;50.940;4.034;2022-09-17T02:27:52;12.60;99.90
52267;DHT22;38223;50.940;4.034;2022-09-17T02:30:29;12.50;99.90
52267;DHT22;38223;50.940;4.034;2022-09-17T02:33:00;12.50;99.90
52267;DHT22;38223;50.940;4.034;2022-09-17T02:35:34;12.40;99.90
52267;DHT22;38223;50.940;4.034;2022-09-17T02:38:09;12.30;99.90
52267;DHT22;38223;50.940;4.034;2022-09-17T02:40:49;12.20;99.90
52267;DHT22;38223;50.940;4.034;2022-09-17T02:43:26;12.40;99.90
52267;DHT22;38223;50.940;4.034;2022-09-17T02:49:22;12.40;99.90
52267;DHT22;38223;50.940;4.034;2022-09-17T02:52:11;12.30;99.90
52267;DHT22;38223;50.940;4.034;2022-09-17T02:57:45;12.30;99.90
52267;DHT22;38223;50.940;4.034;2022-09-17T03:00:16;12.30;99.90
52267;DHT22;38223;50.940;4.034;2022-09-17T03:03:05;12.10;99.90
52267;DHT22;38223;50.940;4.034;2022-09-17T03:05:34;12.10;99.90
52267;DHT22;38223;50.940;4.034;2022-09-17T03:08:11;12.10;99.90
52267;DHT22;38223;50.940;4.034;2022-09-17T03:10:44;12.10;99.90
52267;DHT22;38223;50.940;4.034;2022-09-17T03:13:19;12.00;99.90
52267;DHT22;38223;50.940;4.034;2022-09-17T03:15:53;12.10;99.90
52267;DHT22;38223;50.940;4.034;2022-09-17T03:18:24;12.00;99.90
52267;DHT22;38223;50.940;4.034;2022-09-17T03:20:57;12.00;99.90
52267;DHT22;38223;50.940;4.034;2022-09-17T03:23:34;11.90;99.90
52267;DHT22;38223;50.940;4.034;2022-09-17T03:26:08;12.00;99.90
52267;DHT22;38223;50.940;4.034;2022-09-17T03:28:45;12.00;99.90
52267;DHT22;38223;50.940;4.034;2022-09-17T03:31:22;12.00;99.90
52267;DHT22;38223;50.940;4.034;2022-09-17T03:33:51;12.00;99.90
52267;DHT22;38223;50.940;4.034;2022-09-17T03:36:25;11.90;99.90
52267;DHT22;38223;50.940;4.034;2022-09-17T03:39:02;11.80;99.90
52267;DHT22;38223;50.940;4.034;2022-09-17T03:41:35;11.70;99.90
52267;DHT22;38223;50.940;4.034;2022-09-17T03:44:12;11.60;99.90
52267;DHT22;38223;50.940;4.034;2022-09-17T03:46:42;11.60;99.90
52267;DHT22;38223;50.940;4.034;2022-09-17T03:49:14;11.60;99.90
52267;DHT22;38223;50.940;4.034;2022-09-17T03:51:45;11.60;99.90
52267;DHT22;38223;50.940;4.034;2022-09-17T03:54:19;11.60;99.90
52267;DHT22;38223;50.940;4.034;2022-09-17T03:56:51;11.70;99.90
52267;DHT22;38223;50.940;4.034;2022-09-17T03:59:26;11.70;99.90
52267;DHT22;38223;50.940;4.034;2022-09-17T04:02:01;11.80;99.90
52267;DHT22;38223;50.940;4.034;2022-09-17T04:04:31;11.90;99.90
52267;DHT22;38223;50.940;4.034;2022-09-17T04:07:19;11.90;99.90
52267;DHT22;38223;50.940;4.034;2022-09-17T04:09:52;11.90;99.90
52267;DHT22;38223;50.940;4.034;2022-09-17T04:12:36;11.80;99.90
52267;DHT22;38223;50.940;4.034;2022-09-17T04:15:12;11.70;99.90
52267;DHT22;38223;50.940;4.034;2022-09-17T04:17:51;11.70;99.90
52267;DHT22;38223;50.940;4.034;2022-09-17T04:20:28;11.70;99.90
52267;DHT22;38223;50.940;4.034;2022-09-17T04:23:04;11.80;99.90
52267;DHT22;38223;50.940;4.034;2022-09-17T04:25:38;11.80;99.90
52267;DHT22;38223;50.940;4.034;2022-09-17T04:31:03;11.90;99.90
52267;DHT22;38223;50.940;4.034;2022-09-17T04:33:35;11.80;99.90
52267;DHT22;38223;50.940;4.034;2022-09-17T04:36:05;11.90;99.90
52267;DHT22;38223;50.940;4.034;2022-09-17T04:38:34;12.00;99.90
52267;DHT22;38223;50.940;4.034;2022-09-17T04:41:10;12.00;99.90
52267;DHT22;38223;50.940;4.034;2022-09-17T04:43:39;12.10;99.90
52267;DHT22;38223;50.940;4.034;2022-09-17T04:46:22;12.10;99.90
52267;DHT22;38223;50.940;4.034;2022-09-17T04:48:52;12.10;99.90
52267;DHT22;38223;50.940;4.034;2022-09-17T04:51:26;12.00;99.90
52267;DHT22;38223;50.940;4.034;2022-09-17T04:53:56;11.90;99.90
52267;DHT22;38223;50.940;4.034;2022-09-17T04:56:32;11.90;99.90
52267;DHT22;38223;50.940;4.034;2022-09-17T04:59:06;11.90;99.90
52267;DHT22;38223;50.940;4.034;2022-09-17T05:01:44;11.90;99.90
52267;DHT22;38223;50.940;4.034;2022-09-17T05:04:16;11.80;99.90
52267;DHT22;38223;50.940;4.034;2022-09-17T05:06:46;11.80;99.90
52267;DHT22;38223;50.940;4.034;2022-09-17T05:09:21;11.70;99.90
52267;DHT22;38223;50.940;4.034;2022-09-17T05:11:51;11.80;99.90
52267;DHT22;38223;50.940;4.034;2022-09-17T05:14:30;11.70;99.90
52267;DHT22;38223;50.940;4.034;2022-09-17T05:17:08;11.70;99.90
52267;DHT22;38223;50.940;4.034;2022-09-17T05:22:29;11.60;99.90
52267;DHT22;38223;50.940;4.034;2022-09-17T05:25:02;11.60;99.90
52267;DHT22;38223;50.940;4.034;2022-09-17T05:27:38;11.60;99.90
52267;DHT22;38223;50.940;4.034;2022-09-17T05:30:11;11.60;99.90
52267;DHT22;38223;50.940;4.034;2022-09-17T05:32:46;11.70;99.90
52267;DHT22;38223;50.940;4.034;2022-09-17T05:35:19;11.70;99.90
52267;DHT22;38223;50.940;4.034;2022-09-17T05:38:01;11.70;99.90
52267;DHT22;38223;50.940;4.034;2022-09-17T05:40:35;11.80;99.90
52267;DHT22;38223;50.940;4.034;2022-09-17T05:43:10;11.70;99.90
52267;DHT22;38223;50.940;4.034;2022-09-17T05:45:41;11.80;99.90
52267;DHT22;38223;50.940;4.034;2022-09-17T05:48:17;12.00;99.90
52267;DHT22;38223;50.940;4.034;2022-09-17T05:50:47;12.10;99.90
52267;DHT22;38223;50.940;4.034;2022-09-17T05:53:22;12.10;99.90
52267;DHT22;38223;50.940;4.034;2022-09-17T05:56:01;12.20;99.90
52267;DHT22;38223;50.940;4.034;2022-09-17T05:58:30;12.20;99.90
52267;DHT22;38223;50.940;4.034;2022-09-17T06:01:06;12.10;99.90
52267;DHT22;38223;50.940;4.034;2022-09-17T06:03:42;12.10;99.90
52267;DHT22;38223;50.940;4.034;2022-09-17T06:06:16;12.20;99.90
52267;DHT22;38223;50.940;4.034;2022-09-17T06:08:44;12.20;99.90
52267;DHT22;38223;50.940;4.034;2022-09-17T06:11:21;12.30;99.90
52267;DHT22;38223;50.940;4.034;2022-09-17T06:13:54;12.40;99.90
52267;DHT22;38223;50.940;4.034;2022-09-17T06:16:27;12.50;99.90
52267;DHT22;38223;50.940;4.034;2022-09-17T06:19:01;12.50;99.90
52267;DHT22;38223;50.940;4.034;2022-09-17T06:21:39;12.50;99.90
52267;DHT22;38223;50.940;4.034;2022-09-17T06:24:12;12.50;99.90
52267;DHT22;38223;50.940;4.034;2022-09-17T06:26:50;12.50;99.90
52267;DHT22;38223;50.940;4.034;2022-09-17T06:29:20;12.60;99.90
52267;DHT22;38223;50.940;4.034;2022-09-17T06:31:56;12.70;99.90
52267;DHT22;38223;50.940;4.034;2022-09-17T06:34:28;12.70;99.90
52267;DHT22;38223;50.940;4.034;2022-09-17T06:37:05;12.70;99.90
52267;DHT22;38223;50.940;4.034;2022-09-17T06:39:34;12.70;99.90
52267;DHT22;38223;50.940;4.034;2022-09-17T06:42:07;12.70;99.90
52267;DHT22;38223;50.940;4.034;2022-09-17T06:44:42;12.80;99.90
52267;DHT22;38223;50.940;4.034;2022-09-17T06:47:15;12.80;99.90
52267;DHT22;38223;50.940;4.034;2022-09-17T06:49:46;12.70;99.90
52267;DHT22;38223;50.940;4.034;2022-09-17T06:52:17;12.40;99.90
52267;DHT22;38223;50.940;4.034;2022-09-17T06:54:45;12.60;99.90
52267;DHT22;38223;50.940;4.034;2022-09-17T06:57:15;12.70;99.90
52267;DHT22;38223;50.940;4.034;2022-09-17T06:59:50;12.80;99.90
52267;DHT22;38223;50.940;4.034;2022-09-17T07:02:29;12.90;99.90
52267;DHT22;38223;50.940;4.034;2022-09-17T07:04:58;12.70;99.90
52267;DHT22;38223;50.940;4.034;2022-09-17T07:07:35;12.80;99.90
52267;DHT22;38223;50.940;4.034;2022-09-17T07:10:09;12.80;99.90
52267;DHT22;38223;50.940;4.034;2022-09-17T07:12:45;12.80;99.90
52267;DHT22;38223;50.940;4.034;2022-09-17T07:15:24;12.70;99.90
52267;DHT22;38223;50.940;4.034;2022-09-17T07:18:10;12.70;99.90
52267;DHT22;38223;50.940;4.034;2022-09-17T07:20:35;12.60;99.90
52267;DHT22;38223;50.940;4.034;2022-09-17T07:23:09;12.60;99.90
52267;DHT22;38223;50.940;4.034;2022-09-17T07:25:41;12.60;99.90
52267;DHT22;38223;50.940;4.034;2022-09-17T07:28:13;12.70;99.90
52267;DHT22;38223;50.940;4.034;2022-09-17T07:30:47;12.70;99.90
52267;DHT22;38223;50.940;4.034;2022-09-17T07:33:23;12.80;99.90
52267;DHT22;38223;50.940;4.034;2022-09-17T07:36:00;12.90;99.90
52267;DHT22;38223;50.940;4.034;2022-09-17T07:38:36;12.80;99.90
52267;DHT22;38223;50.940;4.034;2022-09-17T07:41:06;12.80;99.90
52267;DHT22;38223;50.940;4.034;2022-09-17T07:43:39;12.80;99.90
52267;DHT22;38223;50.940;4.034;2022-09-17T07:46:13;12.80;99.90
52267;DHT22;38223;50.940;4.034;2022-09-17T07:48:45;12.90;99.90
52267;DHT22;38223;50.940;4.034;2022-09-17T07:51:25;12.90;99.90
52267;DHT22;38223;50.940;4.034;2022-09-17T07:54:01;12.90;99.90
52267;DHT22;38223;50.940;4.034;2022-09-17T07:56:37;12.90;99.90
52267;DHT22;38223;50.940;4.034;2022-09-17T07:59:08;12.90;99.90
52267;DHT22;38223;50.940;4.034;2022-09-17T08:01:43;13.00;99.90
52267;DHT22;38223;50.940;4.034;2022-09-17T08:04:19;13.10;99.90
52267;DHT22;38223;50.940;4.034;2022-09-17T08:06:50;13.00;99.90
52267;DHT22;38223;50.940;4.034;2022-09-17T08:09:25;13.00;99.90
52267;DHT22;38223;50.940;4.034;2022-09-17T08:11:54;13.10;99.90
52267;DHT22;38223;50.940;4.034;2022-09-17T08:14:31;13.00;99.90
52267;DHT22;38223;50.940;4.034;2022-09-17T08:16:59;13.00;99.90
52267;DHT22;38223;50.940;4.034;2022-09-17T08:19:33;13.00;99.90
52267;DHT22;38223;50.940;4.034;2022-09-17T08:22:04;13.10;99.90
52267;DHT22;38223;50.940;4.034;2022-09-17T08:24:39;13.20;99.90
52267;DHT22;38223;50.940;4.034;2022-09-17T08:27:13;13.30;99.90
52267;DHT22;38223;50.940;4.034;2022-09-17T08:29:44;13.40;99.90
52267;DHT22;38223;50.940;4.034;2022-09-17T08:32:18;13.30;99.90
52267;DHT22;38223;50.940;4.034;2022-09-17T08:34:52;13.10;99.90
52267;DHT22;38223;50.940;4.034;2022-09-17T08:37:24;13.10;99.90
52267;DHT22;38223;50.940;4.034;2022-09-17T08:40:00;12.90;99.90
52267;DHT22;38223;50.940;4.034;2022-09-17T08:42:40;12.60;99.90
52267;DHT22;38223;50.940;4.034;2022-09-17T08:45:09;12.70;99.90
52267;DHT22;38223;50.940;4.034;2022-09-17T08:47:44;12.50;99.90
52267;DHT22;38223;50.940;4.034;2022-09-17T08:50:30;12.60;99.90
52267;DHT22;38223;50.940;4.034;2022-09-17T09:01:39;13.00;99.90
52267;DHT22;38223;50.940;4.034;2022-09-17T09:04:33;13.20;99.90
52267;DHT22;38223;50.940;4.034;2022-09-17T09:09:38;13.20;99.90
52267;DHT22;38223;50.940;4.034;2022-09-17T09:12:17;13.10;99.90
52267;DHT22;38223;50.940;4.034;2022-09-17T09:17:37;13.10;99.90
52267;DHT22;38223;50.940;4.034;2022-09-17T09:20:17;13.20;99.90
52267;DHT22;38223;50.940;4.034;2022-09-17T09:22:53;13.10;99.90
52267;DHT22;38223;50.940;4.034;2022-09-17T09:25:36;12.90;99.90
52267;DHT22;38223;50.940;4.034;2022-09-17T09:28:30;12.50;99.90
52267;DHT22;38223;50.940;4.034;2022-09-17T09:31:07;12.70;99.90
52267;DHT22;38223;50.940;4.034;2022-09-17T09:33:38;12.70;99.90
52267;DHT22;38223;50.940;4.034;2022-09-17T09:36:16;12.70;99.90
52267;DHT22;38223;50.940;4.034;2022-09-17T09:38:55;12.90;99.90
52267;DHT22;38223;50.940;4.034;2022-09-17T09:41:35;13.10;99.90
52267;DHT22;38223;50.940;4.034;2022-09-17T09:44:12;12.90;99.90
52267;DHT22;38223;50.940;4.034;2022-09-17T10:00:53;12.90;99.90
52267;DHT22;38223;50.940;4.034;2022-09-17T10:03:30;12.80;99.90
52267;DHT22;38223;50.940;4.034;2022-09-17T10:06:05;12.70;99.90
52267;DHT22;38223;50.940;4.034;2022-09-17T10:11:31;12.50;99.90
52267;DHT22;38223;50.940;4.034;2022-09-17T10:14:28;12.20;99.90
52267;DHT22;38223;50.940;4.034;2022-09-17T10:17:22;12.10;99.90
52267;DHT22;38223;50.940;4.034;2022-09-17T10:20:12;12.20;99.90
52267;DHT22;38223;50.940;4.034;2022-09-17T10:22:44;12.10;99.90
52267;DHT22;38223;50.940;4.034;2022-09-17T10:25:40;12.10;99.90
52267;DHT22;38223;50.940;4.034;2022-09-17T10:28:31;12.20;99.90
52267;DHT22;38223;50.940;4.034;2022-09-17T10:30:53;12.10;99.90
52267;DHT22;38223;50.940;4.034;2022-09-17T10:33:27;12.10;99.90
52267;DHT22;38223;50.940;4.034;2022-09-17T10:36:04;12.10;99.90
52267;DHT22;38223;50.940;4.034;2022-09-17T10:38:40;12.10;99.90
52267;DHT22;38223;50.940;4.034;2022-09-17T10:41:20;12.00;99.90
52267;DHT22;38223;50.940;4.034;2022-09-17T10:43:52;12.20;99.90
52267;DHT22;38223;50.940;4.034;2022-09-17T10:46:30;12.30;99.90
52267;DHT22;38223;50.940;4.034;2022-09-17T10:49:09;12.40;99.90
52267;DHT22;38223;50.940;4.034;2022-09-17T10:51:41;12.60;99.90
52267;DHT22;38223;50.940;4.034;2022-09-17T10:57:09;12.70;99.90
52267;DHT22;38223;50.940;4.034;2022-09-17T10:59:52;12.80;99.90
52267;DHT22;38223;50.940;4.034;2022-09-17T11:02:35;12.90;99.90
52267;DHT22;38223;50.940;4.034;2022-09-17T11:07:55;12.90;99.90
52267;DHT22;38223;50.940;4.034;2022-09-17T11:10:32;13.00;99.90
52267;DHT22;38223;50.940;4.034;2022-09-17T11:22:04;13.20;99.90
52267;DHT22;38223;50.940;4.034;2022-09-17T11:27:18;13.20;99.90
52267;DHT22;38223;50.940;4.034;2022-09-17T11:30:07;12.80;99.90
52267;DHT22;38223;50.940;4.034;2022-09-17T11:35:27;12.30;99.90
52267;DHT22;38223;50.940;4.034;2022-09-17T11:38:20;12.30;99.90
52267;DHT22;38223;50.940;4.034;2022-09-17T11:40:57;12.40;99.90
52267;DHT22;38223;50.940;4.034;2022-09-17T11:43:38;12.40;99.90
52267;DHT22;38223;50.940;4.034;2022-09-17T11:46:09;12.40;99.90
52267;DHT22;38223;50.940;4.034;2022-09-17T11:51:37;12.70;99.90
52267;DHT22;38223;50.940;4.034;2022-09-17T11:54:25;12.90;99.90
52267;DHT22;38223;50.940;4.034;2022-09-17T11:57:17;12.90;99.90
52267;DHT22;38223;50.940;4.034;2022-09-17T11:59:48;13.00;99.90
52267;DHT22;38223;50.940;4.034;2022-09-17T12:02:55;13.30;99.90
52267;DHT22;38223;50.940;4.034;2022-09-17T12:05:24;13.30;99.90
52267;DHT22;38223;50.940;4.034;2022-09-17T12:08:20;13.40;99.90
52267;DHT22;38223;50.940;4.034;2022-09-17T12:11:06;13.40;99.90
52267;DHT22;38223;50.940;4.034;2022-09-17T12:13:59;13.60;99.90
52267;DHT22;38223;50.940;4.034;2022-09-17T12:16:46;13.80;99.90
52267;DHT22;38223;50.940;4.034;2022-09-17T12:19:39;13.90;99.90
52267;DHT22;38223;50.940;4.034;2022-09-17T12:22:31;14.10;99.90
52267;DHT22;38223;50.940;4.034;2022-09-17T12:25:09;14.30;99.90
52267;DHT22;38223;50.940;4.034;2022-09-17T12:27:55;14.30;99.90
52267;DHT22;38223;50.940;4.034;2022-09-17T12:30:37;14.50;99.90
52267;DHT22;38223;50.940;4.034;2022-09-17T12:33:31;14.50;99.90
52267;DHT22;38223;50.940;4.034;2022-09-17T12:36:25;14.40;99.90
52267;DHT22;38223;50.940;4.034;2022-09-17T12:45:45;14.80;99.90
52267;DHT22;38223;50.940;4.034;2022-09-17T12:54:03;15.00;99.90
52267;DHT22;38223;50.940;4.034;2022-09-17T12:59:20;15.00;99.90
52267;DHT22;38223;50.940;4.034;2022-09-17T13:01:54;15.30;99.90
52267;DHT22;38223;50.940;4.034;2022-09-17T13:10:28;15.70;99.90
52267;DHT22;38223;50.940;4.034;2022-09-17T13:18:30;15.20;99.90
52267;DHT22;38223;50.940;4.034;2022-09-17T13:21:12;14.90;99.90
52267;DHT22;38223;50.940;4.034;2022-09-17T13:23:53;14.60;99.90
52267;DHT22;38223;50.940;4.034;2022-09-17T13:26:35;14.40;99.90
52267;DHT22;38223;50.940;4.034;2022-09-17T13:37:56;13.40;99.90
52267;DHT22;38223;50.940;4.034;2022-09-17T13:40:30;13.40;99.90
52267;DHT22;38223;50.940;4.034;2022-09-17T13:43:13;13.50;99.90
52267;DHT22;38223;50.940;4.034;2022-09-17T13:46:07;13.50;99.90
52267;DHT22;38223;50.940;4.034;2022-09-17T13:48:45;13.60;99.90
52267;DHT22;38223;50.940;4.034;2022-09-17T13:54:07;13.70;99.90
52267;DHT22;38223;50.940;4.034;2022-09-17T13:56:44;13.90;99.90
52267;DHT22;38223;50.940;4.034;2022-09-17T13:59:20;13.90;99.90
52267;DHT22;38223;50.940;4.034;2022-09-17T14:07:46;13.30;99.90
52267;DHT22;38223;50.940;4.034;2022-09-17T14:13:27;13.40;99.90
52267;DHT22;38223;50.940;4.034;2022-09-17T14:16:01;13.50;99.90
52267;DHT22;38223;50.940;4.034;2022-09-17T14:21:32;13.60;99.90
52267;DHT22;38223;50.940;4.034;2022-09-17T14:24:50;13.40;99.90
52267;DHT22;38223;50.940;4.034;2022-09-17T14:27:13;13.10;99.90
52267;DHT22;38223;50.940;4.034;2022-09-17T14:33:12;12.70;99.90
52267;DHT22;38223;50.940;4.034;2022-09-17T14:35:49;12.60;99.90
52267;DHT22;38223;50.940;4.034;2022-09-17T14:38:48;12.70;99.90
52267;DHT22;38223;50.940;4.034;2022-09-17T14:41:23;12.70;99.90
52267;DHT22;38223;50.940;4.034;2022-09-17T14:44:06;12.80;99.90
52267;DHT22;38223;50.940;4.034;2022-09-17T14:46:51;12.90;99.90
52267;DHT22;38223;50.940;4.034;2022-09-17T14:49:25;13.10;99.90
52267;DHT22;38223;50.940;4.034;2022-09-17T14:52:28;13.10;99.90
52267;DHT22;38223;50.940;4.034;2022-09-17T14:57:53;13.10;99.90
52267;DHT22;38223;50.940;4.034;2022-09-17T15:00:33;13.10;99.90
52267;DHT22;38223;50.940;4.034;2022-09-17T15:03:19;13.00;99.90
52267;DHT22;38223;50.940;4.034;2022-09-17T15:05:46;13.00;99.90
52267;DHT22;38223;50.940;4.034;2022-09-17T15:08:20;13.20;99.90
52267;DHT22;38223;50.940;4.034;2022-09-17T15:11:09;13.20;99.90
52267;DHT22;38223;50.940;4.034;2022-09-17T15:13:54;13.00;99.90
52267;DHT22;38223;50.940;4.034;2022-09-17T15:16:31;13.00;99.90
52267;DHT22;38223;50.940;4.034;2022-09-17T15:19:08;12.90;99.90
52267;DHT22;38223;50.940;4.034;2022-09-17T15:21:43;13.00;99.90
52267;DHT22;38223;50.940;4.034;2022-09-17T15:24:42;13.10;99.90
52267;DHT22;38223;50.940;4.034;2022-09-17T15:27:34;13.10;99.90
52267;DHT22;38223;50.940;4.034;2022-09-17T15:30:19;12.90;99.90
52267;DHT22;38223;50.940;4.034;2022-09-17T15:32:52;13.00;99.90
52267;DHT22;38223;50.940;4.034;2022-09-17T15:35:32;13.00;99.90
52267;DHT22;38223;50.940;4.034;2022-09-17T15:38:25;13.10;99.90
52267;DHT22;38223;50.940;4.034;2022-09-17T15:40:39;13.10;99.90
52267;DHT22;38223;50.940;4.034;2022-09-17T15:43:26;13.10;99.90
52267;DHT22;38223;50.940;4.034;2022-09-17T15:46:29;13.20;99.90
52267;DHT22;38223;50.940;4.034;2022-09-17T15:49:25;13.20;99.90
52267;DHT22;38223;50.940;4.034;2022-09-17T15:51:37;13.20;99.90
52267;DHT22;38223;50.940;4.034;2022-09-17T15:54:24;13.20;99.90
52267;DHT22;38223;50.940;4.034;2022-09-17T15:56:45;13.10;99.90
52267;DHT22;38223;50.940;4.034;2022-09-17T15:59:28;13.10;99.90
52267;DHT22;38223;50.940;4.034;2022-09-17T16:02:01;13.20;99.90
52267;DHT22;38223;50.940;4.034;2022-09-17T16:04:31;13.20;99.90
52267;DHT22;38223;50.940;4.034;2022-09-17T16:09:51;13.40;99.90
52267;DHT22;38223;50.940;4.034;2022-09-17T16:12:26;13.40;99.90
52267;DHT22;38223;50.940;4.034;2022-09-17T16:14:59;13.30;99.90
52267;DHT22;38223;50.940;4.034;2022-09-17T16:20:14;13.40;99.90
52267;DHT22;38223;50.940;4.034;2022-09-17T16:22:49;13.30;99.90
52267;DHT22;38223;50.940;4.034;2022-09-17T16:25:25;13.30;99.90
52267;DHT22;38223;50.940;4.034;2022-09-17T16:30:47;13.30;99.90
52267;DHT22;38223;50.940;4.034;2022-09-17T16:33:19;13.30;99.90
52267;DHT22;38223;50.940;4.034;2022-09-17T16:36:02;13.40;99.90
52267;DHT22;38223;50.940;4.034;2022-09-17T16:38:37;13.40;99.90
52267;DHT22;38223;50.940;4.034;2022-09-17T16:41:15;13.40;99.90
52267;DHT22;38223;50.940;4.034;2022-09-17T16:46:36;13.30;99.90
52267;DHT22;38223;50.940;4.034;2022-09-17T16:49:08;13.30;99.90
52267;DHT22;38223;50.940;4.034;2022-09-17T16:51:40;13.20;99.90
52267;DHT22;38223;50.940;4.034;2022-09-17T16:54:08;13.10;99.90
52267;DHT22;38223;50.940;4.034;2022-09-17T16:56:36;13.20;99.90
52267;DHT22;38223;50.940;4.034;2022-09-17T16:59:03;13.30;99.90
52267;DHT22;38223;50.940;4.034;2022-09-17T17:01:36;13.40;99.90
52267;DHT22;38223;50.940;4.034;2022-09-17T17:04:05;13.50;99.90
52267;DHT22;38223;50.940;4.034;2022-09-17T17:06:37;13.30;99.90
52267;DHT22;38223;50.940;4.034;2022-09-17T17:09:06;13.10;99.90
52267;DHT22;38223;50.940;4.034;2022-09-17T17:11:37;13.00;99.90
52267;DHT22;38223;50.940;4.034;2022-09-17T17:14:07;13.00;99.90
52267;DHT22;38223;50.940;4.034;2022-09-17T17:16:38;13.00;99.90
52267;DHT22;38223;50.940;4.034;2022-09-17T17:19:08;12.90;99.90
52267;DHT22;38223;50.940;4.034;2022-09-17T17:21:39;12.90;99.90
52267;DHT22;38223;50.940;4.034;2022-09-17T17:24:12;12.80;99.90
52267;DHT22;38223;50.940;4.034;2022-09-17T17:26:48;12.90;99.90
52267;DHT22;38223;50.940;4.034;2022-09-17T17:29:18;12.70;99.90
52267;DHT22;38223;50.940;4.034;2022-09-17T17:31:48;12.50;99.90
52267;DHT22;38223;50.940;4.034;2022-09-17T17:34:20;12.30;99.90
52267;DHT22;38223;50.940;4.034;2022-09-17T17:36:51;12.30;99.90
52267;DHT22;38223;50.940;4.034;2022-09-17T17:39:23;12.40;99.90
52267;DHT22;38223;50.940;4.034;2022-09-17T17:41:53;12.70;99.90
52267;DHT22;38223;50.940;4.034;2022-09-17T17:44:28;12.80;99.90
52267;DHT22;38223;50.940;4.034;2022-09-17T17:47:00;13.00;99.90
52267;DHT22;38223;50.940;4.034;2022-09-17T17:49:34;13.10;99.90
52267;DHT22;38223;50.940;4.034;2022-09-17T17:52:05;12.90;99.90
52267;DHT22;38223;50.940;4.034;2022-09-17T17:54:33;12.80;99.90
52267;DHT22;38223;50.940;4.034;2022-09-17T17:57:06;12.40;99.90
52267;DHT22;38223;50.940;4.034;2022-09-17T17:59:36;12.20;99.90
52267;DHT22;38223;50.940;4.034;2022-09-17T18:02:15;12.20;99.90
52267;DHT22;38223;50.940;4.034;2022-09-17T18:04:47;12.40;99.90
52267;DHT22;38223;50.940;4.034;2022-09-17T18:07:17;12.60;99.90
52267;DHT22;38223;50.940;4.034;2022-09-17T18:09:49;12.90;99.90
52267;DHT22;38223;50.940;4.034;2022-09-17T18:12:20;13.00;99.90
52267;DHT22;38223;50.940;4.034;2022-09-17T18:14:51;13.10;99.90
52267;DHT22;38223;50.940;4.034;2022-09-17T18:17:23;13.20;99.90
52267;DHT22;38223;50.940;4.034;2022-09-17T18:20:10;13.20;99.90
52267;DHT22;38223;50.940;4.034;2022-09-17T18:22:41;13.20;99.90
52267;DHT22;38223;50.940;4.034;2022-09-17T18:25:14;13.30;99.90
52267;DHT22;38223;50.940;4.034;2022-09-17T18:27:52;13.30;99.90
52267;DHT22;38223;50.940;4.034;2022-09-17T18:30:20;13.30;99.90
52267;DHT22;38223;50.940;4.034;2022-09-17T18:32:54;13.20;99.90
52267;DHT22;38223;50.940;4.034;2022-09-17T18:35:27;13.10;99.90
52267;DHT22;38223;50.940;4.034;2022-09-17T18:37:59;12.90;99.90
52267;DHT22;38223;50.940;4.034;2022-09-17T18:40:35;12.80;99.90
52267;DHT22;38223;50.940;4.034;2022-09-17T18:43:14;12.80;99.90
52267;DHT22;38223;50.940;4.034;2022-09-17T18:45:43;12.80;99.90
52267;DHT22;38223;50.940;4.034;2022-09-17T18:51:12;12.40;99.90
52267;DHT22;38223;50.940;4.034;2022-09-17T18:53:48;12.40;99.90
52267;DHT22;38223;50.940;4.034;2022-09-17T18:56:27;12.50;99.90
52267;DHT22;38223;50.940;4.034;2022-09-17T18:59:00;12.80;99.90
52267;DHT22;38223;50.940;4.034;2022-09-17T19:04:36;13.10;99.90
52267;DHT22;38223;50.940;4.034;2022-09-17T19:07:07;13.30;99.90
52267;DHT22;38223;50.940;4.034;2022-09-17T19:09:37;13.50;99.90
52267;DHT22;38223;50.940;4.034;2022-09-17T19:12:11;13.50;99.90